Deep River, Iowa
Current Conditions -  °F | °C
As of 12:55 PM on Thursday 23 Oct 2014 (Local Time) from KGGI Reporting Station
Overcast Overcast  
Wind Chill: 14°   Ceiling: 900
Heat Index: 14°   Visibility: 10mi
Dew Point: 12°   Wind: 9mph
Humidity: 87%   Direction: 210°SSW
Pressure: 30.06"   Gusts: NA
Location:  41.58°N, 92.37°W
Report Text: KGGI 231755Z AUTO 21008KT 10SM OVC009 14/12 A3006 RMK AO2 60003 T01430121 10143 20092
Loading
Personal Weather Stations






























Interactive Weather Map
Tropical Storm Tracking
New forecast layout! Learn more

10-Day Weather Forecast

Advertisements
Track Severe Weather on mobile